createdAt,value
2018-09-26T00:00:46.596Z,102358.41
2018-09-26T00:03:28.105Z,102360.20
2018-09-26T00:05:58.718Z,102358.44
2018-09-26T00:08:29.351Z,102357.51
2018-09-26T00:11:00.119Z,102357.13
2018-09-26T00:13:30.917Z,102359.31
2018-09-26T00:16:01.643Z,102361.05
2018-09-26T00:18:32.279Z,102356.67
2018-09-26T00:21:02.901Z,102370.27
2018-09-26T00:23:33.610Z,102361.99
2018-09-26T00:26:04.226Z,102353.27
2018-09-26T00:28:34.873Z,102344.03
2018-09-26T00:31:05.516Z,102344.45
2018-09-26T00:33:36.176Z,102339.66
2018-09-26T00:36:06.978Z,102334.89
2018-09-26T00:38:37.568Z,102336.22
2018-09-26T00:41:08.298Z,102337.98
2018-09-26T00:43:38.973Z,102337.11
2018-09-26T00:46:10.650Z,102327.47
2018-09-26T00:48:41.341Z,102328.75
2018-09-26T00:51:12.026Z,102333.54
2018-09-26T00:53:42.699Z,102327.86
2018-09-26T00:56:13.351Z,102319.54
2018-09-26T00:58:44.013Z,102307.27
2018-09-26T01:01:14.646Z,102296.30
2018-09-26T01:03:45.274Z,102296.77
2018-09-26T01:06:15.890Z,102287.58
2018-09-26T01:08:46.494Z,102286.67
2018-09-26T01:11:17.257Z,102283.14
2018-09-26T01:13:47.909Z,102280.56
2018-09-26T01:16:18.686Z,102287.58
2018-09-26T01:18:49.312Z,102287.98
2018-09-26T01:21:20.042Z,102287.58
2018-09-26T01:23:50.678Z,102289.39
2018-09-26T01:26:21.362Z,102285.42
2018-09-26T01:28:52.007Z,102284.56
2018-09-26T01:31:22.696Z,102282.42
2018-09-26T01:33:53.404Z,102284.59
2018-09-26T01:36:24.005Z,102283.70
2018-09-26T01:38:54.719Z,102278.91
2018-09-26T01:41:25.379Z,102270.15
2018-09-26T01:43:56.098Z,102265.28
2018-09-26T01:46:26.754Z,102263.97
2018-09-26T01:48:57.456Z,102265.75
2018-09-26T01:51:28.070Z,102260.92
2018-09-26T01:53:58.778Z,102255.72
2018-09-26T01:56:29.368Z,102247.80
2018-09-26T01:58:59.977Z,102243.91
2018-09-26T02:01:30.573Z,102248.69
2018-09-26T02:04:01.309Z,102247.84
2018-09-26T02:06:31.970Z,102250.91
2018-09-26T02:09:02.590Z,102247.83
2018-09-26T02:11:33.296Z,102241.73
2018-09-26T02:14:04.054Z,102246.14
2018-09-26T02:16:34.671Z,102247.92
2018-09-26T02:19:05.459Z,102245.27
2018-09-26T02:21:41.448Z,102251.40
2018-09-26T02:24:13.076Z,102253.58
2018-09-26T02:26:43.785Z,102253.16
2018-09-26T02:29:14.491Z,102250.53
2018-09-26T02:31:45.192Z,102254.48
2018-09-26T02:34:15.813Z,102246.58
2018-09-26T02:36:46.482Z,102244.35
2018-09-26T02:39:17.215Z,102243.48
2018-09-26T02:41:47.878Z,102234.30
2018-09-26T02:44:18.579Z,102225.94
2018-09-26T02:46:49.275Z,102217.63
2018-09-26T02:49:19.977Z,102224.27
2018-09-26T02:51:50.635Z,102229.95
2018-09-26T02:54:21.331Z,102233.02
2018-09-26T02:56:51.967Z,102240.52
2018-09-26T02:59:22.600Z,102239.16
2018-09-26T03:01:53.362Z,102236.09
2018-09-26T03:04:24.016Z,102226.95
2018-09-26T03:06:54.655Z,102223.45
2018-09-26T03:09:25.285Z,102228.70
2018-09-26T03:11:55.938Z,102226.95
2018-09-26T03:14:26.577Z,102226.92
2018-09-26T03:16:57.218Z,102215.61
2018-09-26T03:19:27.822Z,102213.42
2018-09-26T03:21:58.521Z,102213.39
2018-09-26T03:24:29.116Z,102214.69
2018-09-26T03:26:59.798Z,102204.14
2018-09-26T03:29:30.388Z,102198.05
2018-09-26T03:32:01.084Z,102192.27
2018-09-26T03:34:31.737Z,102195.77
2018-09-26T03:37:02.445Z,102193.55
2018-09-26T03:39:33.030Z,102200.58
2018-09-26T03:42:03.718Z,102197.89
2018-09-26T03:44:34.351Z,102195.27
2018-09-26T03:47:05.105Z,102196.58
2018-09-26T03:49:35.758Z,102206.63
2018-09-26T03:52:06.384Z,102204.36
2018-09-26T03:54:37.116Z,102207.39
2018-09-26T03:57:07.883Z,102212.21
2018-09-26T03:59:38.563Z,102202.50
2018-09-26T04:02:09.207Z,102203.27
2018-09-26T04:04:39.854Z,102198.84
2018-09-26T04:07:10.523Z,102189.20
2018-09-26T04:09:41.211Z,102176.86
2018-09-26T04:12:11.897Z,102176.84
2018-09-26T04:14:42.581Z,102181.59
2018-09-26T04:17:13.267Z,102190.36
2018-09-26T04:19:43.936Z,102196.16
2018-09-26T04:22:14.564Z,102193.41
2018-09-26T04:24:45.188Z,102176.69
2018-09-26T04:27:15.962Z,102163.50
2018-09-26T04:29:46.583Z,102163.34
2018-09-26T04:32:17.207Z,102167.81
2018-09-26T04:34:48.119Z,102155.47
2018-09-26T04:37:18.957Z,102158.00
2018-09-26T04:39:49.707Z,102162.45
2018-09-26T04:42:20.464Z,102170.91
2018-09-26T04:44:51.128Z,102161.63
2018-09-26T04:47:21.842Z,102144.53
2018-09-26T04:49:52.520Z,102149.23
2018-09-26T04:52:23.236Z,102158.01
2018-09-26T04:54:53.885Z,102163.27
2018-09-26T04:57:24.502Z,102180.27
2018-09-26T04:59:55.181Z,102180.69
2018-09-26T05:02:25.742Z,102177.30
2018-09-26T05:04:56.416Z,102173.21
2018-09-26T05:07:27.052Z,102181.08
2018-09-26T05:09:57.724Z,102176.82
2018-09-26T05:12:28.358Z,102174.76
2018-09-26T05:14:59.023Z,102189.59
2018-09-26T05:17:29.683Z,102188.36
2018-09-26T05:20:00.300Z,102179.61
2018-09-26T05:22:30.986Z,102177.56
2018-09-26T05:25:01.687Z,102171.95
2018-09-26T05:27:32.988Z,102167.61
2018-09-26T05:30:03.722Z,102168.23
2018-09-26T05:32:34.946Z,102168.11
2018-09-26T05:35:11.164Z,102181.27
2018-09-26T05:37:46.995Z,102178.31
2018-09-26T05:40:22.841Z,102172.66
2018-09-26T05:42:58.533Z,102176.98
2018-09-26T05:45:34.390Z,102177.30
2018-09-26T05:48:10.432Z,102183.51
2018-09-26T05:50:46.463Z,102183.51
2018-09-26T05:53:22.335Z,102174.77
2018-09-26T05:55:58.249Z,102178.50
2018-09-26T05:58:34.095Z,102174.09
2018-09-26T06:01:10.011Z,102175.40
2018-09-26T06:03:46.060Z,102180.52
2018-09-26T06:06:22.076Z,102175.91
2018-09-26T06:08:57.915Z,102166.13
2018-09-26T06:11:33.834Z,102160.73
2018-09-26T06:14:10.716Z,102158.92
2018-09-26T06:16:46.707Z,102157.95
2018-09-26T06:19:22.766Z,102161.87
2018-09-26T06:21:58.507Z,102160.49
2018-09-26T06:24:34.408Z,102170.19
2018-09-26T06:27:10.354Z,102172.37
2018-09-26T06:29:46.413Z,102175.13
2018-09-26T06:32:22.261Z,102170.73
2018-09-26T06:34:58.170Z,102162.96
2018-09-26T06:37:34.118Z,102164.58
2018-09-26T06:40:10.032Z,102164.51
2018-09-26T06:42:45.877Z,102161.43
2018-09-26T06:45:21.780Z,102159.16
2018-09-26T06:47:57.756Z,102153.88
2018-09-26T06:50:33.764Z,102154.54
2018-09-26T06:53:09.719Z,102160.54
2018-09-26T06:55:45.775Z,102165.14
2018-09-26T06:58:21.722Z,102168.66
2018-09-26T07:00:52.427Z,102165.60
2018-09-26T07:03:23.308Z,102159.27
2018-09-26T07:05:54.043Z,102151.27
2018-09-26T07:08:24.842Z,102171.51
2018-09-26T07:10:55.563Z,102165.47
2018-09-26T07:13:26.278Z,102155.25
2018-09-26T07:15:56.928Z,102162.13
2018-09-26T07:18:27.625Z,102162.81
2018-09-26T07:20:58.394Z,102160.95
2018-09-26T07:23:29.078Z,102153.42
2018-09-26T07:25:59.704Z,102160.16
2018-09-26T07:28:30.359Z,102163.54
2018-09-26T07:31:01.009Z,102159.17
2018-09-26T07:33:31.703Z,102160.00
2018-09-26T07:36:02.554Z,102161.84
2018-09-26T07:38:33.239Z,102160.64
2018-09-26T07:41:03.923Z,102160.42
2018-09-26T07:43:34.583Z,102164.55
2018-09-26T07:46:05.389Z,102160.70
2018-09-26T07:48:36.055Z,102160.03
2018-09-26T07:51:07.124Z,102169.64
2018-09-26T07:53:37.860Z,102174.36
2018-09-26T07:56:08.626Z,102176.55
2018-09-26T07:58:39.395Z,102184.21
2018-09-26T08:01:10.071Z,102178.96
2018-09-26T08:03:40.787Z,102185.96
2018-09-26T08:06:11.523Z,102177.59
2018-09-26T08:08:42.177Z,102186.30
2018-09-26T08:11:12.905Z,102181.16
2018-09-26T08:13:43.516Z,102181.47
2018-09-26T08:16:14.161Z,102186.02
2018-09-26T08:18:44.800Z,102182.44
2018-09-26T08:21:15.456Z,102180.37
2018-09-26T08:23:46.163Z,102172.39
2018-09-26T08:26:16.906Z,102173.94
2018-09-26T08:28:47.652Z,102172.86
2018-09-26T08:31:18.403Z,102175.55
2018-09-26T08:33:49.093Z,102175.94
2018-09-26T08:36:19.790Z,102167.91
2018-09-26T08:38:50.533Z,102166.12
2018-09-26T08:41:21.143Z,102168.90
2018-09-26T08:43:51.891Z,102166.63
2018-09-26T08:46:22.424Z,102176.77
2018-09-26T08:48:53.128Z,102173.56
2018-09-26T08:51:23.767Z,102177.53
2018-09-26T08:53:54.517Z,102183.81
2018-09-26T08:56:25.125Z,102177.38
2018-09-26T08:58:55.775Z,102175.05
2018-09-26T09:01:31.482Z,102169.81
2018-09-26T09:04:02.159Z,102175.13
2018-09-26T09:06:32.828Z,102176.63
2018-09-26T09:09:04.103Z,102176.17
2018-09-26T09:11:34.814Z,102184.23
2018-09-26T09:14:05.584Z,102177.70
2018-09-26T09:16:36.359Z,102182.47
2018-09-26T09:19:07.144Z,102175.66
2018-09-26T09:21:37.807Z,102177.23
2018-09-26T09:24:08.455Z,102169.95
2018-09-26T09:26:39.165Z,102188.56
2018-09-26T09:29:09.843Z,102187.03
2018-09-26T09:31:40.477Z,102187.61
2018-09-26T09:34:11.173Z,102196.70
2018-09-26T09:36:41.927Z,102192.53
2018-09-26T09:39:12.504Z,102190.66
2018-09-26T09:41:43.339Z,102192.63
2018-09-26T09:44:14.008Z,102189.87
2018-09-26T09:46:44.730Z,102191.48
2018-09-26T09:49:15.365Z,102192.14
2018-09-26T09:51:46.100Z,102188.18
2018-09-26T09:54:16.866Z,102187.43
2018-09-26T09:56:47.563Z,102192.86
2018-09-26T09:59:18.224Z,102196.34
2018-09-26T10:01:48.855Z,102187.88
2018-09-26T10:04:19.496Z,102183.31
2018-09-26T10:06:50.345Z,102189.97
2018-09-26T10:09:21.118Z,102177.89
2018-09-26T10:11:51.813Z,102167.16
2018-09-26T10:14:22.655Z,102169.36
2018-09-26T10:16:53.232Z,102168.19
2018-09-26T10:19:24.006Z,102172.98
2018-09-26T10:21:54.638Z,102168.72
2018-09-26T10:24:25.295Z,102161.50
2018-09-26T10:26:55.939Z,102169.30
2018-09-26T10:29:26.595Z,102167.08
2018-09-26T10:31:57.962Z,102163.36
2018-09-26T10:34:28.680Z,102163.12
2018-09-26T10:36:59.326Z,102170.28
2018-09-26T10:39:30.106Z,102166.34
2018-09-26T10:42:00.787Z,102160.58
2018-09-26T10:44:31.495Z,102157.60
2018-09-26T10:47:02.221Z,102156.85
2018-09-26T10:49:32.918Z,102154.19
2018-09-26T10:52:03.560Z,102157.85
2018-09-26T10:54:34.205Z,102151.56
2018-09-26T10:57:04.883Z,102146.98
2018-09-26T10:59:35.556Z,102143.67
2018-09-26T11:02:06.334Z,102145.79
2018-09-26T11:04:36.965Z,102143.72
2018-09-26T11:07:07.689Z,102138.02
2018-09-26T11:09:38.373Z,102128.08
2018-09-26T11:12:09.077Z,102119.62
2018-09-26T11:14:39.761Z,102110.55
2018-09-26T11:17:10.531Z,102110.16
2018-09-26T11:19:41.186Z,102113.06
2018-09-26T11:22:11.967Z,102106.76
2018-09-26T11:24:42.664Z,102107.98
2018-09-26T11:27:13.353Z,102111.37
2018-09-26T11:29:44.112Z,102103.34
2018-09-26T11:32:14.859Z,102103.47
2018-09-26T11:34:45.548Z,102110.22
2018-09-26T11:37:16.247Z,102105.36
2018-09-26T11:39:46.943Z,102092.88
2018-09-26T11:42:17.607Z,102087.10
2018-09-26T11:44:54.877Z,102085.80
2018-09-26T11:47:25.549Z,102090.31
2018-09-26T11:49:56.176Z,102088.42
2018-09-26T11:52:26.975Z,102092.55
2018-09-26T11:54:57.592Z,102095.59
2018-09-26T11:57:28.219Z,102089.33
2018-09-26T11:59:58.965Z,102082.48
2018-09-26T12:02:29.673Z,102083.12
2018-09-26T12:05:00.336Z,102083.98
2018-09-26T12:07:31.118Z,102083.17
2018-09-26T12:10:01.785Z,102067.81
2018-09-26T12:12:32.448Z,102074.43
2018-09-26T12:15:03.171Z,102076.23
2018-09-26T12:17:33.899Z,102071.98
2018-09-26T12:20:04.771Z,102069.72
2018-09-26T12:22:36.071Z,102074.61
2018-09-26T12:25:06.819Z,102064.34
2018-09-26T12:27:37.733Z,102060.23
2018-09-26T12:30:09.504Z,102061.19
2018-09-26T12:32:40.338Z,102048.64
2018-09-26T12:35:11.102Z,102044.70
2018-09-26T12:37:41.774Z,102044.52
2018-09-26T12:40:12.574Z,102036.07
2018-09-26T12:42:43.314Z,102026.91
2018-09-26T12:45:13.984Z,102026.86
2018-09-26T12:47:44.627Z,102009.23
2018-09-26T12:50:15.310Z,102029.36
2018-09-26T12:52:45.986Z,102022.30
2018-09-26T12:55:16.677Z,102026.20
2018-09-26T12:57:47.374Z,102027.66
2018-09-26T13:00:18.243Z,102019.77
2018-09-26T13:02:48.990Z,102024.08
2018-09-26T13:05:19.695Z,102022.41
2018-09-26T13:07:50.435Z,102024.11
2018-09-26T13:10:21.205Z,102011.64
2018-09-26T13:12:51.921Z,102012.91
2018-09-26T13:15:22.625Z,102000.02
2018-09-26T13:17:53.387Z,102002.16
2018-09-26T13:20:24.153Z,101991.83
2018-09-26T13:22:54.817Z,101989.59
2018-09-26T13:25:25.522Z,101984.69
2018-09-26T13:27:56.183Z,101985.63
2018-09-26T13:30:26.975Z,101986.45
2018-09-26T13:32:57.650Z,101987.09
2018-09-26T13:35:28.315Z,101982.13
2018-09-26T13:37:59.021Z,101986.93
2018-09-26T13:40:29.775Z,101984.67
2018-09-26T13:43:00.549Z,101984.67
2018-09-26T13:45:31.272Z,101983.69
2018-09-26T13:48:01.977Z,101979.36
2018-09-26T13:50:32.739Z,101976.13
2018-09-26T13:53:03.424Z,101977.81
2018-09-26T13:55:34.105Z,101964.41
2018-09-26T13:58:04.803Z,101972.09
2018-09-26T14:00:35.547Z,101971.61
2018-09-26T14:03:06.320Z,101957.19
2018-09-26T14:05:36.972Z,101954.91
2018-09-26T14:08:07.746Z,101962.91
2018-09-26T14:10:38.534Z,101958.37
2018-09-26T14:13:09.222Z,101962.63
2018-09-26T14:15:39.889Z,101957.95
2018-09-26T14:18:10.566Z,101945.54
2018-09-26T14:20:41.272Z,101953.19
2018-09-26T14:23:12.048Z,101956.20
2018-09-26T14:25:42.683Z,101944.97
2018-09-26T14:28:13.404Z,101939.61
2018-09-26T14:30:44.121Z,101935.23
2018-09-26T14:33:14.759Z,101940.62
2018-09-26T14:35:45.551Z,101928.82
2018-09-26T14:38:16.251Z,101928.63
2018-09-26T14:40:46.969Z,101923.81
2018-09-26T14:43:17.641Z,101926.77
2018-09-26T14:45:48.394Z,101922.29
2018-09-26T14:48:19.024Z,101910.40
2018-09-26T14:50:49.696Z,101913.05
2018-09-26T14:53:20.421Z,101915.19
2018-09-26T14:55:51.015Z,101912.53
2018-09-26T14:58:21.804Z,101926.31
2018-09-26T15:00:52.476Z,101911.39
2018-09-26T15:03:23.144Z,101913.42
2018-09-26T15:05:53.842Z,101917.27
2018-09-26T15:08:24.631Z,101917.78
2018-09-26T15:10:55.269Z,101908.63
2018-09-26T15:13:25.918Z,101915.02
2018-09-26T15:15:56.593Z,101905.42
2018-09-26T15:18:27.229Z,101906.48
2018-09-26T15:20:57.894Z,101900.27
2018-09-26T15:23:28.517Z,101905.07
2018-09-26T15:25:59.313Z,101907.16
2018-09-26T15:28:29.894Z,101908.63
2018-09-26T15:31:00.635Z,101911.27
2018-09-26T15:33:31.444Z,101914.36
2018-09-26T15:36:02.173Z,101909.77
2018-09-26T15:38:32.815Z,101904.87
2018-09-26T15:41:03.512Z,101901.36
2018-09-26T15:43:34.147Z,101903.69
2018-09-26T15:46:04.824Z,101904.04
2018-09-26T15:48:35.701Z,101904.22
2018-09-26T15:51:06.341Z,101896.64
2018-09-26T15:53:37.028Z,101901.07
2018-09-26T15:56:07.769Z,101898.10
2018-09-26T15:58:38.374Z,101896.75
2018-09-26T16:01:09.008Z,101898.02
2018-09-26T16:03:39.652Z,101891.40
2018-09-26T16:06:10.395Z,101886.89
2018-09-26T16:08:41.084Z,101886.99
2018-09-26T16:11:12.126Z,101890.20
2018-09-26T16:13:42.726Z,101894.36
2018-09-26T16:16:13.462Z,101896.09
2018-09-26T16:18:44.156Z,101891.63
2018-09-26T16:21:14.989Z,101892.47
2018-09-26T16:23:45.640Z,101887.05
2018-09-26T16:26:16.292Z,101885.22
2018-09-26T16:28:46.923Z,101884.71
2018-09-26T16:31:17.597Z,101881.94
2018-09-26T16:33:48.248Z,101886.75
2018-09-26T16:36:18.932Z,101882.07
2018-09-26T16:38:49.711Z,101878.33
2018-09-26T16:41:20.392Z,101876.05
2018-09-26T16:43:51.042Z,101876.76
2018-09-26T16:46:21.816Z,101875.95
2018-09-26T16:48:52.475Z,101873.32
2018-09-26T16:51:23.124Z,101871.87
2018-09-26T16:53:53.806Z,101878.67
2018-09-26T16:56:24.531Z,101879.44
2018-09-26T16:58:55.383Z,101876.70
2018-09-26T17:01:26.043Z,101878.09
2018-09-26T17:03:56.751Z,101881.55
2018-09-26T17:06:27.371Z,101884.37
2018-09-26T17:08:58.120Z,101885.39
2018-09-26T17:11:28.762Z,101880.92
2018-09-26T17:13:59.400Z,101881.05
2018-09-26T17:16:30.152Z,101878.25
2018-09-26T17:19:00.847Z,101875.30
2018-09-26T17:21:31.507Z,101881.39
2018-09-26T17:24:02.182Z,101883.90
2018-09-26T17:26:32.810Z,101883.58
2018-09-26T17:29:03.519Z,101887.84
2018-09-26T17:31:34.204Z,101893.96
2018-09-26T17:34:04.956Z,101883.77
2018-09-26T17:36:35.577Z,101873.63
2018-09-26T17:39:07.821Z,101873.94
2018-09-26T17:41:38.549Z,101876.89
2018-09-26T17:44:09.135Z,101879.52
2018-09-26T17:46:39.838Z,101873.40
2018-09-26T17:49:10.500Z,101873.48
2018-09-26T17:51:41.164Z,101877.67
2018-09-26T17:54:11.882Z,101868.31
2018-09-26T17:56:42.552Z,101869.56
2018-09-26T17:59:13.220Z,101868.84
2018-09-26T18:01:43.924Z,101875.75
2018-09-26T18:04:14.612Z,101876.16
2018-09-26T18:06:45.257Z,101879.47
2018-09-26T18:09:15.934Z,101883.72
2018-09-26T18:11:46.680Z,101880.73
2018-09-26T18:14:17.326Z,101879.59
2018-09-26T18:16:48.096Z,101870.34
2018-09-26T18:19:18.736Z,101878.34
2018-09-26T18:21:49.464Z,101875.45
2018-09-26T18:24:20.127Z,101882.09
2018-09-26T18:26:50.834Z,101887.27
2018-09-26T18:29:21.507Z,101891.78
2018-09-26T18:31:52.226Z,101900.47
2018-09-26T18:34:22.818Z,101904.11
2018-09-26T18:36:53.604Z,101902.44
2018-09-26T18:39:25.164Z,101906.08
2018-09-26T18:41:55.851Z,101904.09
2018-09-26T18:44:26.769Z,101901.17
2018-09-26T18:46:57.423Z,101906.77
2018-09-26T18:49:28.212Z,101909.52
2018-09-26T18:51:58.882Z,101914.55
2018-09-26T18:54:29.554Z,101913.83
2018-09-26T18:57:00.277Z,101911.07
2018-09-26T18:59:30.893Z,101909.81
2018-09-26T19:02:01.557Z,101916.66
2018-09-26T19:04:32.316Z,101912.30
2018-09-26T19:07:03.228Z,101912.55
2018-09-26T19:09:34.135Z,101907.80
2018-09-26T19:12:05.323Z,101906.39
2018-09-26T19:14:36.205Z,101912.82
2018-09-26T19:17:07.257Z,101907.93
2018-09-26T19:19:38.194Z,101912.30
2018-09-26T19:22:09.974Z,101923.57
2018-09-26T19:24:40.983Z,101919.45
2018-09-26T19:27:12.004Z,101915.25
2018-09-26T19:29:42.656Z,101917.66
2018-09-26T19:32:13.540Z,101918.98
2018-09-26T19:34:44.345Z,101925.63
2018-09-26T19:37:15.031Z,101920.84
2018-09-26T19:39:45.808Z,101915.98
2018-09-26T19:42:16.628Z,101919.28
2018-09-26T19:44:47.292Z,101918.94
2018-09-26T19:47:18.011Z,101926.64
2018-09-26T19:49:48.709Z,101920.59
2018-09-26T19:52:19.450Z,101925.13
2018-09-26T19:54:50.088Z,101920.82
2018-09-26T19:57:20.752Z,101928.01
2018-09-26T19:59:51.445Z,101923.73
2018-09-26T20:02:22.133Z,101924.22
2018-09-26T20:04:52.827Z,101926.48
2018-09-26T20:07:23.474Z,101927.30
2018-09-26T20:09:54.157Z,101930.17
2018-09-26T20:12:24.802Z,101932.23
2018-09-26T20:14:55.420Z,101934.63
2018-09-26T20:17:26.107Z,101935.95
2018-09-26T20:19:56.747Z,101928.94
2018-09-26T20:22:27.419Z,101926.44
2018-09-26T20:24:58.139Z,101918.97
2018-09-26T20:27:28.966Z,101922.74
2018-09-26T20:29:59.677Z,101923.86
2018-09-26T20:32:30.452Z,101921.01
2018-09-26T20:35:01.234Z,101909.94
2018-09-26T20:37:31.838Z,101921.51
2018-09-26T20:40:02.456Z,101917.33
2018-09-26T20:42:33.096Z,101921.27
2018-09-26T20:45:03.765Z,101916.88
2018-09-26T20:47:34.394Z,101916.06
2018-09-26T20:50:05.301Z,101911.63
2018-09-26T20:52:35.989Z,101915.97
2018-09-26T20:55:06.738Z,101918.72
2018-09-26T20:57:37.371Z,101914.89
2018-09-26T21:00:08.078Z,101917.61
2018-09-26T21:02:38.791Z,101920.10
2018-09-26T21:05:09.587Z,101922.39
2018-09-26T21:07:40.287Z,101924.63
2018-09-26T21:10:11.168Z,101928.30
2018-09-26T21:12:41.813Z,101925.19
2018-09-26T21:15:14.196Z,101920.64
2018-09-26T21:17:44.916Z,101923.78
2018-09-26T21:20:15.531Z,101920.80
2018-09-26T21:22:46.209Z,101926.97
2018-09-26T21:25:16.931Z,101930.20
2018-09-26T21:27:47.600Z,101936.46
2018-09-26T21:30:18.300Z,101935.50
2018-09-26T21:32:48.999Z,101926.82
2018-09-26T21:35:19.769Z,101921.88
2018-09-26T21:37:50.390Z,101918.42
2018-09-26T21:40:21.116Z,101922.75
2018-09-26T21:42:51.786Z,101922.69
2018-09-26T21:45:22.464Z,101921.67
2018-09-26T21:47:53.100Z,101929.08
2018-09-26T21:50:24.670Z,101923.63
2018-09-26T21:52:55.308Z,101931.16
2018-09-26T21:55:25.944Z,101927.12
2018-09-26T21:57:56.612Z,101924.83
2018-09-26T22:00:27.466Z,101922.63
2018-09-26T22:02:58.124Z,101921.61
2018-09-26T22:05:28.767Z,101922.33
2018-09-26T22:07:59.463Z,101928.20
2018-09-26T22:10:30.089Z,101919.89
2018-09-26T22:13:00.790Z,101917.84
2018-09-26T22:15:31.370Z,101917.45
2018-09-26T22:18:02.022Z,101909.59
2018-09-26T22:20:32.777Z,101910.16
2018-09-26T22:23:03.501Z,101904.50
2018-09-26T22:25:34.132Z,101910.83
2018-09-26T22:28:04.792Z,101914.53
2018-09-26T22:30:35.420Z,101913.20
2018-09-26T22:33:06.180Z,101913.69
2018-09-26T22:35:36.838Z,101910.38
2018-09-26T22:38:07.639Z,101907.39
2018-09-26T22:40:38.291Z,101901.43
2018-09-26T22:43:08.966Z,101898.70
2018-09-26T22:45:39.639Z,101901.64
2018-09-26T22:48:10.308Z,101899.51
2018-09-26T22:50:41.089Z,101905.70
2018-09-26T22:53:11.760Z,101899.56
2018-09-26T22:55:42.414Z,101896.46
2018-09-26T22:58:13.162Z,101895.02
2018-09-26T23:00:43.729Z,101894.78
2018-09-26T23:03:14.379Z,101889.15
2018-09-26T23:05:45.025Z,101887.02
2018-09-26T23:08:15.669Z,101889.27
2018-09-26T23:10:46.302Z,101892.88
2018-09-26T23:13:17.002Z,101893.39
2018-09-26T23:15:47.652Z,101892.01
2018-09-26T23:18:18.500Z,101891.20
2018-09-26T23:20:49.194Z,101888.63
2018-09-26T23:23:19.862Z,101893.33
2018-09-26T23:26:21.400Z,101891.34
2018-09-26T23:28:52.083Z,101893.27
2018-09-26T23:31:22.765Z,101885.83
2018-09-26T23:33:53.383Z,101892.27
2018-09-26T23:36:24.094Z,101887.45
2018-09-26T23:38:54.736Z,101884.49
2018-09-26T23:41:25.348Z,101886.02
2018-09-26T23:43:55.999Z,101894.98
2018-09-26T23:46:26.718Z,101883.73
2018-09-26T23:48:57.368Z,101883.17
2018-09-26T23:51:28.067Z,101895.36
2018-09-26T23:53:59.300Z,101892.86
2018-09-26T23:56:30.426Z,101892.08
2018-09-26T23:59:01.090Z,101884.52
